Time;durP1;ratioP1;P1;durP2;ratioP2;P2;SDS_P1;SDS_P2;PMS_P1;PMS_P2;Temp;Humidity;BMP_temperature;BMP_pressure;BME280_temperature;BME280_humidity;BME280_pressure;Samples;Min_cycle;Max_cycle;Signal;HPM_P1;HPM_P2
2023/01/02 00:00:59;;;;;;;18.58;14.88;;;12.10;99.90;;;;;;4997846;28;92343;-75
2023/01/02 00:03:26;;;;;;;21.15;14.35;;;12.10;99.90;;;;;;5015556;28;92526;-75
2023/01/02 00:05:53;;;;;;;20.67;15.50;;;12.10;99.90;;;;;;4996527;28;96035;-76
2023/01/02 00:08:20;;;;;;;19.55;14.18;;;12.10;99.90;;;;;;4997718;28;95506;-75
2023/01/02 00:10:47;;;;;;;19.15;13.68;;;12.10;99.90;;;;;;5015550;28;92340;-76
2023/01/02 00:13:21;;;;;;;21.60;14.30;;;12.10;99.90;;;;;;4997115;28;93025;-76
2023/01/02 00:15:48;;;;;;;24.05;16.48;;;12.10;99.90;;;;;;4980742;28;96047;-76
2023/01/02 00:18:15;;;;;;;24.00;15.13;;;12.10;99.90;;;;;;4997184;28;92510;-75
2023/01/02 00:20:42;;;;;;;18.58;13.93;;;12.20;99.90;;;;;;4997788;28;92551;-75
2023/01/02 00:23:09;;;;;;;21.67;14.75;;;12.10;99.90;;;;;;4981665;28;91790;-75
2023/01/02 00:25:36;;;;;;;23.95;16.15;;;12.20;99.90;;;;;;4997580;28;93216;-77
2023/01/02 00:28:04;;;;;;;20.95;13.85;;;12.20;99.90;;;;;;5015049;28;93161;-75
2023/01/02 00:30:31;;;;;;;23.50;16.80;;;12.20;99.90;;;;;;4995992;28;95133;-76
2023/01/02 00:33:04;;;;;;;25.13;15.93;;;12.20;99.90;;;;;;4982867;28;92436;-76
2023/01/02 00:35:32;;;;;;;22.02;15.07;;;12.30;99.90;;;;;;4996887;28;94907;-76
2023/01/02 00:37:59;;;;;;;23.98;16.27;;;12.30;99.90;;;;;;4997325;28;92870;-76
2023/01/02 00:40:26;;;;;;;22.70;15.02;;;12.30;99.90;;;;;;5015114;28;92448;-76
2023/01/02 00:42:53;;;;;;;21.95;15.30;;;12.30;99.90;;;;;;4997410;28;92531;-76
2023/01/02 00:45:20;;;;;;;24.10;16.00;;;12.30;99.90;;;;;;4996722;28;96232;-76
2023/01/02 00:47:47;;;;;;;24.60;15.93;;;12.30;99.90;;;;;;4964764;28;95728;-76
2023/01/02 00:50:14;;;;;;;21.92;15.95;;;12.30;99.90;;;;;;5015035;28;92417;-76
2023/01/02 00:52:41;;;;;;;25.42;15.80;;;12.30;99.90;;;;;;4997115;28;92427;-76
2023/01/02 00:55:09;;;;;;;20.70;14.88;;;12.40;99.90;;;;;;5013366;28;94774;-76
2023/01/02 00:57:36;;;;;;;20.08;15.20;;;12.30;99.90;;;;;;4996951;28;95443;-75
2023/01/02 01:00:05;;;;;;;21.80;15.55;;;12.30;99.90;;;;;;5014920;28;92440;-76
2023/01/02 01:02:32;;;;;;;29.25;17.25;;;12.30;99.90;;;;;;4996691;28;92444;-76
2023/01/02 01:04:59;;;;;;;24.38;15.48;;;12.30;99.90;;;;;;5015015;28;93398;-75
2023/01/02 01:07:28;;;;;;;25.30;16.52;;;12.30;99.90;;;;;;4996984;28;93090;-76
2023/01/02 01:09:55;;;;;;;26.80;16.92;;;12.40;99.90;;;;;;4979960;28;92552;-76
2023/01/02 01:12:22;;;;;;;23.33;16.88;;;12.40;99.90;;;;;;4980378;28;91809;-76
2023/01/02 01:14:49;;;;;;;20.55;16.15;;;12.40;99.90;;;;;;4996399;28;93336;-76
2023/01/02 01:17:16;;;;;;;26.00;17.45;;;12.40;99.90;;;;;;4996303;28;93330;-76
2023/01/02 01:19:43;;;;;;;21.90;17.10;;;12.40;99.90;;;;;;4979406;28;94936;-76
2023/01/02 01:22:11;;;;;;;28.10;17.00;;;12.40;99.90;;;;;;5014512;28;92427;-76
2023/01/02 01:24:38;;;;;;;25.17;16.98;;;12.40;99.90;;;;;;4963813;28;96022;-76
2023/01/02 01:27:05;;;;;;;25.23;16.77;;;12.40;99.90;;;;;;4996448;28;92983;-76
2023/01/02 01:29:32;;;;;;;25.35;17.80;;;12.40;99.90;;;;;;4997061;28;92503;-76
2023/01/02 01:31:58;;;;;;;25.45;16.77;;;12.40;99.90;;;;;;4983129;28;98367;-76
2023/01/02 01:34:25;;;;;;;29.80;18.13;;;12.50;99.90;;;;;;4966908;28;95101;-76
2023/01/02 01:36:53;;;;;;;28.52;18.25;;;12.50;99.90;;;;;;4999911;28;95670;-76
2023/01/02 01:39:20;;;;;;;25.73;17.55;;;12.50;99.90;;;;;;4999527;28;92946;-76
2023/01/02 01:41:47;;;;;;;24.50;17.05;;;12.50;99.90;;;;;;4999806;28;92565;-76
2023/01/02 01:44:40;;;;;;;25.17;17.77;;;12.50;99.90;;;;;;5016061;28;95398;-76
2023/01/02 01:47:22;;;;;;;23.52;16.13;;;12.60;99.90;;;;;;4999274;28;98112;-76
2023/01/02 01:50:01;;;;;;;21.17;15.05;;;12.60;99.90;;;;;;5017845;28;92416;-76
2023/01/02 01:52:35;;;;;;;21.90;15.68;;;12.60;99.90;;;;;;5018037;28;92490;-75
2023/01/02 01:55:11;;;;;;;22.20;15.52;;;12.50;99.90;;;;;;5017789;28;93253;-76
2023/01/02 01:57:53;;;;;;;21.92;15.07;;;12.60;99.90;;;;;;4999504;28;96423;-76
2023/01/02 02:00:20;;;;;;;27.02;16.92;;;12.60;99.90;;;;;;4999866;28;92343;-76
2023/01/02 02:02:56;;;;;;;25.60;15.35;;;12.60;99.90;;;;;;4983398;28;92589;-76
2023/01/02 02:05:28;;;;;;;21.92;14.75;;;12.60;99.90;;;;;;5017520;28;93300;-76
2023/01/02 02:08:19;;;;;;;23.88;16.60;;;12.70;99.90;;;;;;5017786;28;93287;-76
2023/01/02 02:10:48;;;;;;;22.60;15.20;;;12.70;99.90;;;;;;5003007;28;95010;-77
2023/01/02 02:13:16;;;;;;;19.13;13.80;;;12.70;99.90;;;;;;4982303;28;92538;-76
2023/01/02 02:15:52;;;;;;;22.45;14.35;;;12.70;99.90;;;;;;4998873;28;95786;-77
2023/01/02 02:19:06;;;;;;;20.08;13.15;;;12.80;99.90;;;;;;4998909;28;95613;-76
2023/01/02 02:21:50;;;;;;;20.15;12.57;;;12.80;99.90;;;;;;4919439;28;92533;-77
2023/01/02 02:24:26;;;;;;;18.15;13.07;;;12.80;99.90;;;;;;4992396;28;92626;-77
2023/01/02 02:27:16;;;;;;;19.92;13.75;;;12.80;99.90;;;;;;4999412;28;93201;-76
2023/01/02 02:30:02;;;;;;;23.05;12.88;;;12.80;99.90;;;;;;4999882;28;92308;-76
2023/01/02 02:32:45;;;;;;;22.52;13.07;;;12.80;99.90;;;;;;4998786;28;92929;-76
2023/01/02 02:35:18;;;;;;;20.77;13.27;;;12.80;99.90;;;;;;5017043;28;92436;-76
2023/01/02 02:37:58;;;;;;;18.67;12.07;;;12.80;99.90;;;;;;4997760;28;94955;-76
2023/01/02 02:40:34;;;;;;;17.60;11.90;;;12.90;99.90;;;;;;5016726;28;95554;-76
2023/01/02 02:43:15;;;;;;;18.90;12.48;;;12.80;99.90;;;;;;4999366;28;92444;-76
2023/01/02 02:46:05;;;;;;;19.67;12.10;;;12.90;99.90;;;;;;4998639;28;92456;-76
2023/01/02 02:49:01;;;;;;;18.90;10.85;;;12.90;99.90;;;;;;4998814;28;93260;-76
2023/01/02 02:51:31;;;;;;;20.25;12.02;;;12.90;99.90;;;;;;4967939;28;95488;-76
2023/01/02 02:54:08;;;;;;;19.75;11.32;;;12.90;99.90;;;;;;4998617;28;92611;-76
2023/01/02 02:56:36;;;;;;;19.85;11.13;;;12.90;99.90;;;;;;5016977;28;91781;-76
2023/01/02 02:59:03;;;;;;;16.33;10.18;;;12.90;99.90;;;;;;4998706;28;93689;-76
2023/01/02 03:01:31;;;;;;;17.70;11.27;;;12.90;99.90;;;;;;5016151;28;93467;-75
2023/01/02 03:03:58;;;;;;;18.17;10.70;;;12.90;99.90;;;;;;4997583;28;94758;-75
2023/01/02 03:06:47;;;;;;;15.55;10.35;;;12.90;99.90;;;;;;4998602;28;92463;-75
2023/01/02 03:09:35;;;;;;;19.05;9.75;;;12.90;99.90;;;;;;5016521;28;93550;-75
2023/01/02 03:12:06;;;;;;;16.35;9.02;;;13.00;99.90;;;;;;4998652;28;96184;-76
2023/01/02 03:14:51;;;;;;;17.45;9.35;;;13.00;99.90;;;;;;4998953;28;92383;-76
2023/01/02 03:17:29;;;;;;;15.70;9.00;;;13.00;99.90;;;;;;5016887;28;92495;-76
2023/01/02 03:20:05;;;;;;;15.65;9.30;;;13.00;99.90;;;;;;5016965;28;93401;-75
2023/01/02 03:22:39;;;;;;;13.60;8.52;;;13.00;99.90;;;;;;5016765;28;93251;-76
2023/01/02 03:25:09;;;;;;;14.07;9.07;;;13.00;99.90;;;;;;4999202;28;93072;-75
2023/01/02 03:27:42;;;;;;;17.40;9.48;;;13.00;99.90;;;;;;5016726;28;92425;-76
2023/01/02 03:30:17;;;;;;;15.35;8.50;;;13.00;99.90;;;;;;4997712;28;95698;-76
2023/01/02 03:33:15;;;;;;;14.07;8.88;;;13.00;99.90;;;;;;4998946;28;95543;-75
2023/01/02 03:35:48;;;;;;;17.25;9.65;;;13.00;99.90;;;;;;4998174;28;92464;-76
2023/01/02 03:38:24;;;;;;;18.23;9.77;;;13.00;99.90;;;;;;4982195;28;92982;-76
2023/01/02 03:41:23;;;;;;;16.17;9.52;;;13.00;99.90;;;;;;4998938;28;93102;-75
2023/01/02 03:43:53;;;;;;;18.05;9.88;;;13.00;99.90;;;;;;4998025;28;93045;-75
2023/01/02 03:46:49;;;;;;;16.88;9.35;;;13.00;99.90;;;;;;4999158;28;92404;-75
2023/01/02 03:49:27;;;;;;;20.35;9.13;;;13.00;99.90;;;;;;5017094;28;91601;-75
2023/01/02 03:51:54;;;;;;;13.80;9.20;;;13.00;99.90;;;;;;4998795;28;93168;-75
2023/01/02 03:54:22;;;;;;;18.23;9.93;;;12.90;99.90;;;;;;4998223;28;92598;-76
2023/01/02 03:57:07;;;;;;;15.88;10.18;;;13.00;99.90;;;;;;4980965;28;94828;-76
2023/01/02 03:59:34;;;;;;;11.73;9.15;;;13.00;99.90;;;;;;4998040;28;92378;-76
2023/01/02 04:02:33;;;;;;;17.35;10.43;;;12.90;99.90;;;;;;4981398;28;96016;-76
2023/01/02 04:05:05;;;;;;;14.43;9.43;;;13.00;99.90;;;;;;4997295;28;94167;-77
2023/01/02 04:07:40;;;;;;;17.80;10.35;;;13.00;99.90;;;;;;5016034;28;92308;-76
2023/01/02 04:10:10;;;;;;;15.48;9.88;;;13.00;99.90;;;;;;4997535;28;92495;-76
2023/01/02 04:12:40;;;;;;;13.68;9.13;;;13.00;99.90;;;;;;5015649;28;93740;-76
2023/01/02 04:15:11;;;;;;;12.57;9.20;;;13.00;99.90;;;;;;4998243;28;93004;-76
2023/01/02 04:17:43;;;;;;;15.50;8.88;;;13.00;99.90;;;;;;4998417;28;92537;-76
2023/01/02 04:20:15;;;;;;;13.90;9.88;;;13.00;99.90;;;;;;4998268;28;92564;-76
2023/01/02 04:22:49;;;;;;;13.95;9.45;;;13.00;99.90;;;;;;4996922;28;95975;-76
2023/01/02 04:25:17;;;;;;;13.77;9.30;;;13.00;99.90;;;;;;4998000;28;95417;-76
2023/01/02 04:27:50;;;;;;;13.20;7.97;;;13.10;99.90;;;;;;5015728;28;92480;-76
2023/01/02 04:30:17;;;;;;;10.38;8.65;;;13.10;99.90;;;;;;5015790;28;92690;-76
2023/01/02 04:32:46;;;;;;;13.80;8.38;;;13.10;99.90;;;;;;4997353;28;94344;-76
2023/01/02 04:35:22;;;;;;;13.27;9.10;;;13.10;99.90;;;;;;4981454;28;95604;-76
2023/01/02 04:37:49;;;;;;;14.13;8.40;;;13.10;99.90;;;;;;4997561;28;92560;-76
2023/01/02 04:40:27;;;;;;;9.02;5.95;;;13.10;99.90;;;;;;5016109;28;91670;-76
2023/01/02 04:42:54;;;;;;;13.25;8.85;;;13.10;99.90;;;;;;5015640;28;93233;-76
2023/01/02 04:45:22;;;;;;;15.13;8.23;;;13.10;99.90;;;;;;4997382;28;96032;-76
2023/01/02 04:47:49;;;;;;;18.42;8.55;;;13.10;99.90;;;;;;5014218;28;94897;-76
2023/01/02 04:50:16;;;;;;;13.50;8.43;;;13.20;99.90;;;;;;4997241;28;92605;-76
2023/01/02 04:52:43;;;;;;;9.80;7.95;;;13.20;99.90;;;;;;4997497;28;93332;-76
2023/01/02 04:55:12;;;;;;;12.75;7.78;;;13.20;99.90;;;;;;4981179;28;94206;-76
2023/01/02 04:57:39;;;;;;;14.65;9.13;;;13.20;99.90;;;;;;4980808;28;93078;-76
2023/01/02 05:00:08;;;;;;;14.65;8.50;;;13.20;99.90;;;;;;5015594;28;92424;-76
2023/01/02 05:02:38;;;;;;;12.35;8.18;;;13.30;99.90;;;;;;5014864;28;92572;-76
2023/01/02 05:05:07;;;;;;;12.93;8.50;;;13.30;99.90;;;;;;4981672;28;97159;-76
2023/01/02 05:07:37;;;;;;;12.98;8.27;;;13.30;99.90;;;;;;5018790;28;92413;-76
2023/01/02 05:10:07;;;;;;;14.02;8.35;;;13.30;99.90;;;;;;5000999;28;92557;-76
2023/01/02 05:12:35;;;;;;;11.88;7.72;;;13.30;99.90;;;;;;4999045;28;98398;-76
2023/01/02 05:15:08;;;;;;;13.15;7.75;;;13.30;99.90;;;;;;5018219;28;95412;-76
2023/01/02 05:17:36;;;;;;;16.65;8.48;;;13.30;99.90;;;;;;5018932;28;92528;-76
2023/01/02 05:20:05;;;;;;;14.07;8.32;;;13.30;99.90;;;;;;5000644;28;92501;-76
2023/01/02 05:25:17;;;;;;;12.07;7.38;;;13.30;99.90;;;;;;5018786;28;92388;-76
2023/01/02 05:27:44;;;;;;;13.75;7.60;;;13.30;99.90;;;;;;5000932;28;93125;-76
2023/01/02 05:30:11;;;;;;;10.52;6.95;;;13.30;99.90;;;;;;5019040;28;91713;-76
2023/01/02 05:32:38;;;;;;;10.52;7.28;;;13.30;99.90;;;;;;4983715;28;95827;-76
2023/01/02 05:35:06;;;;;;;13.57;7.82;;;13.40;99.90;;;;;;5000760;28;93381;-76
2023/01/02 05:37:33;;;;;;;11.80;7.60;;;13.40;99.90;;;;;;5017442;28;95175;-76
2023/01/02 05:40:00;;;;;;;12.85;7.28;;;13.40;99.90;;;;;;5000843;28;92615;-76
2023/01/02 05:42:27;;;;;;;12.55;7.38;;;13.40;99.90;;;;;;4983724;28;96451;-77
2023/01/02 05:44:54;;;;;;;12.57;6.78;;;13.50;99.90;;;;;;4983417;28;96106;-76
2023/01/02 05:47:21;;;;;;;12.88;7.18;;;13.50;99.90;;;;;;4984585;28;92494;-75
2023/01/02 05:49:48;;;;;;;13.75;8.18;;;13.50;99.90;;;;;;5000344;28;92599;-75
2023/01/02 05:52:15;;;;;;;11.20;7.07;;;13.50;99.90;;;;;;5000543;28;93308;-76
2023/01/02 05:54:42;;;;;;;13.25;8.20;;;13.50;99.90;;;;;;4983829;28;93013;-76
2023/01/02 05:57:09;;;;;;;9.70;6.85;;;13.50;99.90;;;;;;4983536;28;92747;-76
2023/01/02 05:59:36;;;;;;;13.02;7.57;;;13.50;99.90;;;;;;5000525;28;92466;-76
2023/01/02 06:02:03;;;;;;;10.27;6.93;;;13.60;99.90;;;;;;4998446;28;98438;-76
2023/01/02 06:04:30;;;;;;;10.13;7.00;;;13.60;99.90;;;;;;4999815;28;98109;-76
2023/01/02 06:06:57;;;;;;;11.68;7.15;;;13.50;99.90;;;;;;4999938;28;92557;-76
2023/01/02 06:09:24;;;;;;;12.45;6.65;;;13.60;99.90;;;;;;5000058;28;92530;-76
2023/01/02 06:11:51;;;;;;;10.23;7.28;;;13.60;99.90;;;;;;5017681;28;93277;-76
2023/01/02 06:14:18;;;;;;;13.05;7.22;;;13.60;99.90;;;;;;4999245;28;93451;-75
2023/01/02 06:16:46;;;;;;;11.55;7.55;;;13.60;99.90;;;;;;4998125;28;92526;-76
2023/01/02 06:19:13;;;;;;;12.18;6.93;;;13.60;99.90;;;;;;4982886;28;91825;-76
2023/01/02 06:21:39;;;;;;;12.10;7.78;;;13.60;99.90;;;;;;4998379;28;98936;-76
2023/01/02 06:24:06;;;;;;;11.52;7.95;;;13.60;99.90;;;;;;5016299;28;93043;-76
2023/01/02 06:26:34;;;;;;;15.93;7.28;;;13.60;99.90;;;;;;4997479;28;94812;-76
2023/01/02 06:29:02;;;;;;;11.35;6.90;;;13.60;99.90;;;;;;5016443;28;92463;-76
2023/01/02 06:31:32;;;;;;;10.63;6.10;;;13.60;99.90;;;;;;5016410;28;93302;-76
2023/01/02 06:34:00;;;;;;;12.73;7.03;;;13.50;99.90;;;;;;4998115;28;95739;-76
2023/01/02 06:36:32;;;;;;;8.90;6.25;;;13.60;99.90;;;;;;5016186;28;92418;-76
2023/01/02 06:39:00;;;;;;;11.82;6.95;;;13.60;99.90;;;;;;4982059;28;92412;-76
2023/01/02 06:41:27;;;;;;;10.80;6.47;;;13.60;99.90;;;;;;5016174;28;93112;-76
2023/01/02 06:43:54;;;;;;;9.95;6.63;;;13.60;99.90;;;;;;4998663;28;93349;-76
2023/01/02 06:46:22;;;;;;;9.93;6.38;;;13.60;99.90;;;;;;4998113;28;92513;-76
2023/01/02 06:48:49;;;;;;;13.30;7.10;;;13.70;99.90;;;;;;5016054;28;93120;-76
2023/01/02 06:51:21;;;;;;;9.35;6.75;;;13.70;99.90;;;;;;4996934;28;95905;-76
2023/01/02 06:53:50;;;;;;;10.40;6.25;;;13.70;99.90;;;;;;4998232;28;95650;-76
2023/01/02 06:56:19;;;;;;;10.35;6.88;;;13.60;99.90;;;;;;4998144;28;92865;-76
2023/01/02 06:58:46;;;;;;;10.38;7.22;;;13.70;99.90;;;;;;4997909;28;92457;-76
2023/01/02 07:01:20;;;;;;;10.13;6.75;;;13.70;99.90;;;;;;5015725;28;93402;-76
2023/01/02 07:03:47;;;;;;;7.97;6.28;;;13.70;99.90;;;;;;4997732;28;95279;-76
2023/01/02 07:06:19;;;;;;;14.18;7.47;;;13.70;99.90;;;;;;5015943;28;92380;-76
2023/01/02 07:08:47;;;;;;;9.02;6.15;;;13.70;99.90;;;;;;4981604;28;91704;-76
2023/01/02 07:11:23;;;;;;;7.75;6.03;;;13.70;99.90;;;;;;4997530;28;96044;-76
2023/01/02 07:13:52;;;;;;;9.50;5.75;;;13.70;99.90;;;;;;4947312;28;1429776;-76
2023/01/02 07:16:21;;;;;;;6.95;6.10;;;13.70;99.90;;;;;;4997902;28;94927;-76
2023/01/02 07:18:50;;;;;;;7.57;5.93;;;13.70;99.90;;;;;;4999048;28;92450;-76
2023/01/02 07:21:17;;;;;;;9.88;6.72;;;13.80;99.90;;;;;;5016794;28;93117;-77
2023/01/02 07:23:44;;;;;;;6.97;6.28;;;13.80;99.90;;;;;;4982192;28;94370;-76
2023/01/02 07:26:12;;;;;;;9.15;6.05;;;13.70;99.90;;;;;;4998902;28;92710;-75
2023/01/02 07:28:40;;;;;;;10.90;6.20;;;13.80;99.90;;;;;;4997621;28;92511;-75
2023/01/02 07:31:18;;;;;;;7.88;6.20;;;13.80;99.90;;;;;;4998586;28;93671;-76
2023/01/02 07:33:45;;;;;;;7.88;5.65;;;13.80;99.90;;;;;;5016968;28;93355;-76
2023/01/02 07:36:15;;;;;;;9.18;6.10;;;13.70;99.90;;;;;;5016608;28;92361;-76
2023/01/02 07:38:43;;;;;;;8.05;5.45;;;13.70;99.90;;;;;;4982142;28;92555;-77
2023/01/02 07:41:16;;;;;;;6.32;3.75;;;13.70;99.90;;;;;;4980882;28;96058;-76
2023/01/02 07:43:44;;;;;;;3.72;3.15;;;13.70;99.90;;;;;;5016230;28;94943;-76
2023/01/02 07:46:13;;;;;;;2.50;2.30;;;13.60;99.90;;;;;;4998701;28;92467;-76
2023/01/02 07:48:40;;;;;;;3.05;2.10;;;13.60;99.90;;;;;;4998529;28;92504;-76
2023/01/02 07:51:08;;;;;;;3.00;1.40;;;13.50;99.90;;;;;;4981972;28;93344;-77
2023/01/02 07:53:37;;;;;;;1.52;1.23;;;13.40;99.90;;;;;;4998506;28;93034;-77
2023/01/02 07:56:04;;;;;;;1.50;1.40;;;13.30;99.90;;;;;;5016274;28;92327;-77
2023/01/02 07:58:31;;;;;;;1.75;1.65;;;13.20;99.90;;;;;;4999301;28;92212;-77
2023/01/02 08:01:05;;;;;;;2.25;2.05;;;13.20;99.90;;;;;;5016233;28;93527;-77
2023/01/02 08:03:32;;;;;;;;;;;13.20;99.90;;;;;;4998586;28;95519;-76
2023/01/02 08:06:11;;;;;;;1.85;1.70;;;13.10;99.90;;;;;;5015743;28;94869;-76
2023/01/02 08:08:39;;;;;;;2.13;2.00;;;13.00;99.90;;;;;;5016460;28;92414;-76
2023/01/02 08:11:11;;;;;;;2.25;2.15;;;13.00;99.90;;;;;;5015818;28;93463;-76
2023/01/02 08:13:39;;;;;;;2.85;2.15;;;13.00;99.90;;;;;;4998149;28;93185;-76
2023/01/02 08:16:08;;;;;;;3.00;2.67;;;12.90;99.90;;;;;;5016017;28;92442;-76
2023/01/02 08:18:36;;;;;;;3.00;2.80;;;12.80;99.90;;;;;;5015701;28;92437;-77
2023/01/02 08:21:03;;;;;;;3.35;3.05;;;12.90;99.90;;;;;;4981310;28;94533;-77
2023/01/02 08:23:31;;;;;;;4.10;3.75;;;12.80;99.90;;;;;;4981585;28;95961;-77
2023/01/02 08:26:00;;;;;;;3.50;3.20;;;12.80;99.90;;;;;;4998005;28;93024;-77
2023/01/02 08:28:28;;;;;;;3.70;3.40;;;12.80;99.90;;;;;;5015876;28;92579;-77
2023/01/02 08:30:55;;;;;;;4.20;3.80;;;12.70;99.90;;;;;;5014399;28;95619;-76
2023/01/02 08:33:22;;;;;;;3.47;3.17;;;12.70;99.90;;;;;;4997595;28;96967;-76
2023/01/02 08:35:50;;;;;;;2.92;2.72;;;12.70;99.90;;;;;;4997651;28;92502;-77
2023/01/02 08:38:17;;;;;;;3.38;2.60;;;12.60;99.90;;;;;;4997526;28;92804;-77
2023/01/02 08:40:44;;;;;;;2.45;2.25;;;12.60;99.90;;;;;;4980933;28;96127;-76
2023/01/02 08:43:11;;;;;;;3.95;2.28;;;12.50;99.90;;;;;;4997376;28;95376;-76
2023/01/02 08:45:38;;;;;;;2.50;2.30;;;12.50;99.90;;;;;;4998170;28;92636;-77
2023/01/02 08:48:05;;;;;;;2.30;2.00;;;12.40;99.90;;;;;;4998224;28;91927;-76
2023/01/02 08:50:47;;;;;;;2.42;2.15;;;12.40;99.90;;;;;;4999801;28;94360;-76
2023/01/02 08:53:13;;;;;;;1.73;1.63;;;12.30;99.90;;;;;;4997612;28;93454;-76
2023/01/02 08:55:40;;;;;;;2.00;1.80;;;12.30;99.90;;;;;;4996432;28;94936;-76
2023/01/02 08:58:07;;;;;;;1.60;1.30;;;12.20;99.90;;;;;;4997240;28;92546;-76
2023/01/02 09:00:34;;;;;;;1.83;1.27;;;12.10;99.90;;;;;;4997147;28;94545;-76
2023/01/02 09:03:01;;;;;;;1.55;1.45;;;12.00;99.90;;;;;;4997416;28;95629;-76
2023/01/02 09:05:29;;;;;;;1.17;1.08;;;12.00;99.90;;;;;;4980947;28;92524;-77
2023/01/02 09:07:57;;;;;;;1.20;1.10;;;12.00;99.90;;;;;;4981487;28;92519;-76
2023/01/02 09:10:25;;;;;;;0.80;0.70;;;11.90;99.90;;;;;;5014962;28;93677;-76
2023/01/02 09:12:52;;;;;;;1.60;1.38;;;11.90;99.90;;;;;;4980933;28;96318;-76
2023/01/02 09:15:20;;;;;;;1.15;0.80;;;11.80;99.90;;;;;;4976415;28;92548;-76
2023/01/02 09:17:47;;;;;;;0.90;0.77;;;11.80;99.90;;;;;;4994116;28;93430;-75
2023/01/02 09:20:14;;;;;;;1.00;1.00;;;11.80;99.90;;;;;;4975953;28;98433;-77
2023/01/02 09:22:41;;;;;;;1.15;0.90;;;11.80;99.90;;;;;;4977410;28;95634;-76
2023/01/02 09:25:08;;;;;;;1.70;1.00;;;11.70;99.90;;;;;;4977599;28;92385;-77
2023/01/02 09:27:35;;;;;;;1.90;1.15;;;11.70;99.90;;;;;;4977498;28;92536;-77
2023/01/02 09:30:02;;;;;;;1.77;1.15;;;11.80;99.90;;;;;;4993964;28;93290;-77
2023/01/02 09:32:29;;;;;;;2.40;1.30;;;11.80;99.90;;;;;;4993427;28;95661;-76
2023/01/02 09:34:56;;;;;;;0.95;0.93;;;11.80;99.90;;;;;;4995313;28;92911;-76
2023/01/02 09:37:23;;;;;;;1.25;1.17;;;11.70;99.90;;;;;;4977648;28;91837;-76
2023/01/02 09:39:50;;;;;;;1.55;1.25;;;11.70;99.90;;;;;;4994597;28;95105;-76
2023/01/02 09:42:17;;;;;;;2.40;1.30;;;11.70;99.90;;;;;;4977329;28;93294;-76
2023/01/02 09:44:57;;;;;;;2.80;1.83;;;11.70;99.90;;;;;;4992985;28;95379;-76
2023/01/02 09:47:31;;;;;;;2.35;1.38;;;11.70;99.90;;;;;;4977535;28;92496;-75
2023/01/02 09:50:11;;;;;;;2.03;1.27;;;11.70;99.90;;;;;;4994624;28;93262;-75
2023/01/02 09:52:45;;;;;;;1.27;1.02;;;11.80;99.90;;;;;;4979801;28;95577;-76
2023/01/02 09:55:18;;;;;;;3.42;1.35;;;11.80;99.90;;;;;;4997441;28;92559;-76
2023/01/02 09:57:56;;;;;;;1.45;1.35;;;11.70;99.90;;;;;;4998252;28;92453;-76
2023/01/02 10:00:28;;;;;;;1.67;1.20;;;11.80;99.90;;;;;;4996713;28;93174;-76
2023/01/02 10:03:04;;;;;;;1.60;1.50;;;11.80;99.90;;;;;;4997232;28;92996;-76
2023/01/02 10:05:55;;;;;;;1.73;1.63;;;11.80;99.90;;;;;;4998197;28;92455;-76
2023/01/02 10:08:47;;;;;;;1.55;1.38;;;11.80;99.90;;;;;;4996861;28;93128;-76
2023/01/02 10:11:52;;;;;;;1.95;1.25;;;11.90;99.90;;;;;;4978222;28;98761;-76
2023/01/02 10:14:48;;;;;;;1.58;1.27;;;11.90;99.90;;;;;;4999096;28;95412;-76
2023/01/02 10:17:16;;;;;;;1.92;1.52;;;11.90;99.90;;;;;;5000043;28;92458;-76
2023/01/02 10:19:57;;;;;;;1.13;1.10;;;11.80;99.90;;;;;;5017427;28;92671;-76
2023/01/02 10:22:32;;;;;;;1.85;1.50;;;11.90;99.90;;;;;;4999323;28;96102;-76
2023/01/02 10:25:07;;;;;;;1.63;1.50;;;11.90;99.90;;;;;;5017772;28;93309;-76
2023/01/02 10:27:43;;;;;;;1.35;1.25;;;11.90;99.90;;;;;;5017690;28;92451;-76
2023/01/02 10:30:17;;;;;;;1.65;1.48;;;12.00;99.90;;;;;;4999880;28;92051;-76
2023/01/02 10:32:54;;;;;;;1.42;1.33;;;12.00;99.90;;;;;;4999382;28;95763;-76
2023/01/02 10:35:46;;;;;;;1.75;1.48;;;12.10;99.90;;;;;;4999308;28;95686;-76
2023/01/02 10:38:16;;;;;;;1.40;1.30;;;12.20;99.90;;;;;;5016563;28;94729;-76
2023/01/02 10:40:46;;;;;;;2.15;1.80;;;12.20;99.90;;;;;;5017437;28;92507;-76
2023/01/02 10:43:14;;;;;;;2.55;1.75;;;12.20;99.90;;;;;;5017277;28;93149;-77
2023/01/02 10:45:41;;;;;;;2.08;1.50;;;12.20;99.90;;;;;;4999093;28;93961;-76
2023/01/02 10:48:10;;;;;;;1.98;1.80;;;12.20;99.90;;;;;;4999377;28;92569;-76
2023/01/02 10:50:51;;;;;;;2.08;1.88;;;12.20;99.90;;;;;;4999020;28;92948;-76
2023/01/02 10:53:32;;;;;;;1.77;1.67;;;12.20;99.90;;;;;;5017414;28;93308;-76
2023/01/02 10:56:19;;;;;;;2.17;1.83;;;12.10;99.90;;;;;;5017747;28;93115;-76
2023/01/02 10:58:48;;;;;;;1.85;1.73;;;12.10;99.90;;;;;;5016734;28;92403;-76
2023/01/02 11:01:18;;;;;;;1.60;1.50;;;12.00;99.90;;;;;;5017290;28;92446;-76
2023/01/02 11:03:49;;;;;;;2.03;1.77;;;11.90;99.90;;;;;;4996108;28;98205;-76
2023/01/02 11:06:29;;;;;;;2.70;1.48;;;11.90;99.90;;;;;;4982910;28;97986;-76
2023/01/02 11:09:21;;;;;;;2.47;1.70;;;11.90;99.90;;;;;;5017339;28;92544;-76
2023/01/02 11:11:54;;;;;;;1.45;1.35;;;11.90;99.90;;;;;;4998745;28;92567;-76
2023/01/02 11:14:27;;;;;;;1.30;1.20;;;11.90;99.90;;;;;;5016753;28;93351;-76
2023/01/02 11:17:02;;;;;;;2.20;1.23;;;11.90;99.90;;;;;;4998852;28;95585;-76
2023/01/02 11:19:29;;;;;;;1.58;1.27;;;12.00;99.90;;;;;;5016867;28;92867;-75
2023/01/02 11:21:57;;;;;;;1.00;0.82;;;12.00;99.90;;;;;;5017350;28;91828;-75
2023/01/02 11:24:27;;;;;;;1.88;1.10;;;12.10;99.90;;;;;;4998807;28;93701;-75
2023/01/02 11:26:55;;;;;;;1.10;1.00;;;12.20;99.90;;;;;;4982102;28;95784;-75
2023/01/02 11:29:31;;;;;;;2.42;0.88;;;12.30;99.90;;;;;;5015884;28;94837;-75
2023/01/02 11:32:02;;;;;;;0.70;0.70;;;12.40;99.90;;;;;;5016881;28;92576;-76
2023/01/02 11:34:39;;;;;;;1.35;0.93;;;12.30;99.90;;;;;;5016647;28;93069;-76
2023/01/02 11:37:12;;;;;;;2.42;0.90;;;12.40;99.90;;;;;;5016578;28;92991;-76
2023/01/02 11:39:40;;;;;;;2.53;1.10;;;12.40;99.90;;;;;;4998794;28;92609;-75
2023/01/02 11:45:17;;;;;;;3.80;1.50;;;12.40;99.90;;;;;;5016562;28;92991;-76
2023/01/02 11:47:56;;;;;;;1.45;1.35;;;12.40;99.90;;;;;;4998403;28;96463;-75
2023/01/02 11:50:26;;;;;;;1.48;1.15;;;12.30;99.90;;;;;;5016650;28;92461;-75
2023/01/02 11:53:00;;;;;;;1.80;1.35;;;12.30;99.90;;;;;;5016712;28;92402;-76
2023/01/02 11:56:06;;;;;;;2.47;1.10;;;12.30;99.90;;;;;;5015135;28;95560;-76
2023/01/02 11:58:47;;;;;;;2.63;1.13;;;12.30;99.90;;;;;;5004703;28;95426;-76
2023/01/02 12:01:29;;;;;;;2.08;1.30;;;12.20;99.90;;;;;;4998881;28;92474;-76
2023/01/02 12:03:56;;;;;;;4.38;1.85;;;12.20;99.90;;;;;;4998615;28;92534;-76
2023/01/02 12:06:32;;;;;;;3.63;1.48;;;12.10;99.90;;;;;;5016205;28;93187;-76
2023/01/02 12:09:30;;;;;;;2.17;1.60;;;12.10;99.90;;;;;;5016346;28;93006;-76
2023/01/02 12:12:21;;;;;;;3.25;1.30;;;12.10;99.90;;;;;;5016305;28;92356;-76
2023/01/02 12:15:07;;;;;;;3.38;1.73;;;12.10;99.90;;;;;;5015598;28;91773;-76
2023/01/02 12:17:56;;;;;;;3.40;1.52;;;12.10;99.90;;;;;;4998229;28;93676;-76
2023/01/02 12:20:45;;;;;;;3.42;1.60;;;12.10;99.90;;;;;;5015886;28;92910;-77
2023/01/02 12:23:46;;;;;;;3.47;1.95;;;12.10;99.90;;;;;;4968872;28;94977;-76
2023/01/02 12:26:15;;;;;;;3.03;1.50;;;12.30;99.90;;;;;;4981405;28;92616;-76
2023/01/02 12:28:54;;;;;;;3.15;1.67;;;12.30;99.90;;;;;;4997784;28;93176;-76
2023/01/02 12:31:36;;;;;;;2.13;1.50;;;12.30;99.90;;;;;;4998145;28;93082;-75
2023/01/02 12:34:25;;;;;;;4.65;1.85;;;12.30;99.90;;;;;;5016159;28;92451;-76
2023/01/02 12:37:12;;;;;;;4.32;1.80;;;12.30;99.90;;;;;;5015683;28;92337;-76
2023/01/02 12:39:54;;;;;;;3.85;1.70;;;12.20;99.90;;;;;;4997419;28;97111;-75
2023/01/02 12:42:45;;;;;;;3.42;1.88;;;12.10;99.90;;;;;;5016061;28;92983;-75
2023/01/02 12:45:24;;;;;;;3.70;2.10;;;12.10;99.90;;;;;;4998139;28;92542;-76
2023/01/02 12:48:26;;;;;;;5.38;2.58;;;12.10;99.90;;;;;;4997743;28;92997;-76
2023/01/02 12:51:03;;;;;;;3.40;1.80;;;12.10;99.90;;;;;;5014344;28;95686;-75
2023/01/02 12:53:51;;;;;;;5.10;2.22;;;12.10;99.90;;;;;;5015356;28;95315;-76
2023/01/02 12:56:43;;;;;;;6.18;2.45;;;12.10;99.90;;;;;;4997353;28;92452;-77
2023/01/02 12:59:28;;;;;;;5.57;2.13;;;12.10;99.90;;;;;;4997872;28;93005;-77
2023/01/02 13:02:21;;;;;;;7.93;3.15;;;12.10;99.90;;;;;;5015209;28;93146;-76
2023/01/02 13:04:54;;;;;;;5.53;3.05;;;12.10;99.90;;;;;;5015462;28;93622;-77
2023/01/02 13:07:30;;;;;;;;;;;12.00;99.90;;;;;;5016393;28;92431;-76
2023/01/02 13:10:03;;;;;;;8.43;2.97;;;11.90;99.90;;;;;;4999036;28;91701;-77
2023/01/02 13:12:33;;;;;;;7.97;3.03;;;11.90;99.90;;;;;;4997708;28;93267;-77
2023/01/02 13:15:15;;;;;;;7.40;2.80;;;11.90;99.90;;;;;;4996609;28;95882;-77